Tutti
West Musgrave Airport (Mantamaru, WA) YWMO Meteo
|
Mantamaru, WA (YWMO)
Cielo sereno
Venti leggeri |
|
17 °C |
Previsione area Terminal YWMO
| Date | Time (AWST) | Flight Rules | Wind Dir. | Speed | Type | Height AGL (ft) | Visibility | Remarks | ||||||
|---|---|---|---|---|---|---|---|---|---|---|---|---|---|---|
Storico METAR YWMO recente
| Date | Time (AWST) | Flight Rules | Wind Dir. | Speed | Type | Height AGL (ft) | Visibility | Temp (°C) | Temp (°F) | Dew Point (°C) | Dew Point (°F) | Rel. Humid. | Pressure | Density Altitude | Remarks |
|---|---|---|---|---|---|---|---|---|---|---|---|---|---|---|---|
| 09-mag | 19:00 | VFR | 90° | 8 kt | 10000 meters | 17° | 62° | 0° | 32° | 32% | 1024 mb | 1.763 ft | |||
| 09-mag | 18:00 | VFR | 110° | 9 kt | 10000 meters | 18° | 64° | -1° | 30° | 28% | 1024 mb | 1.883 ft | |||
| 09-mag | 17:00 | VFR | 100° | 12 kt | 10000 meters | 20° | 68° | -2° | 28° | 23% | 1023 mb | 2.152 ft | |||
| 09-mag | 16:00 | VFR | 110° | 11 kt | 10000 meters | 21° | 69° | -4° | 24° | 18% | 1023 mb | 2.272 ft | |||
| 09-mag | 15:00 | VFR | 110° | 12 kt | 10000 meters | 21° | 69° | -4° | 24° | 18% | 1023 mb | 2.272 ft | |||
| 09-mag | 14:00 | VFR | 110° | 12 kt | 10000 meters | 21° | 69° | -3° | 26° | 20% | 1023 mb | 2.272 ft | |||
| 09-mag | 13:00 | VFR | 110° | 11 kt | 10000 meters | 20° | 68° | -2° | 28° | 23% | 1023 mb | 2.152 ft | |||
| 09-mag | 12:00 | VFR | 110° | 12 kt | 10000 meters | 19° | 66° | -2° | 28° | 24% | 1024 mb | 2.003 ft | |||
| 09-mag | 11:00 | VFR | 100° | 11 kt | 10000 meters | 18° | 64° | -1° | 30° | 28% | 1026 mb | 1.824 ft | |||
| 09-mag | 10:00 | VFR | 80° | 12 kt | 10000 meters | 16° | 60° | -1° | 30° | 31% | 1027 mb | 1.554 ft | |||
| 09-mag | 09:00 | VFR | 100° | 10 kt | 10000 meters | 14° | 57° | 1° | 33° | 41% | 1028 mb | 1.285 ft | |||
| 09-mag | 08:00 | VFR | 100° | 7 kt | 10000 meters | 12° | 53° | 1° | 33° | 47% | 1028 mb | 1.045 ft | |||
| 09-mag | 07:00 | VFR | 90° | 5 kt | 10000 meters | 8° | 46° | 0° | 32° | 57% | 1027 mb | 594 ft | |||
| 09-mag | 06:00 | VFR | 100° | 5 kt | 10000 meters | 7° | 44° | 0° | 32° | 61% | 1027 mb | 474 ft | |||
| 09-mag | 05:00 | VFR | 10° | 4 kt | 10000 meters | 7° | 44° | -1° | 30° | 57% | 1026 mb | 504 ft | |||
| 09-mag | 04:00 | VFR | 110° | 4 kt | 10000 meters | 8° | 46° | 0° | 32° | 57% | 1026 mb | 624 ft | |||
| 09-mag | 03:00 | VFR | 120° | 7 kt | 10000 meters | 8° | 46° | 0° | 32° | 57% | 1026 mb | 624 ft | |||
| 09-mag | 02:00 | VFR | 70° | 6 kt | 10000 meters | 9° | 48° | 0° | 32° | 53% | 1026 mb | 744 ft | |||
| 09-mag | 01:00 | VFR | 50° | 7 kt | 10000 meters | 10° | 50° | -1° | 30° | 46% | 1026 mb | 864 ft | |||
| 09-mag | 00:00 | VFR | 110° | 8 kt | 10000 meters | 12° | 53° | 0° | 32° | 44% | 1026 mb | 1.104 ft | |||
| 08-mag | 23:00 | VFR | 360° | 8 kt | 10000 meters | 12° | 53° | -1° | 30° | 40% | 1026 mb | 1.104 ft | |||
| 08-mag | 22:00 | VFR | 40° | 7 kt | 10000 meters | 13° | 55° | -1° | 30° | 38% | 1027 mb | 1.194 ft | |||
| 08-mag | 21:00 | VFR | 10° | 10 kt | 10000 meters | 14° | 57° | -1° | 30° | 36% | 1027 mb | 1.314 ft | |||
| 08-mag | 20:00 | VFR | 100° | 8 kt | 10000 meters | 15° | 59° | -1° | 30° | 33% | 1026 mb | 1.464 ft |
Accedi
| Il tuo browser non è supportato. fai l'upgrade del tuo browser |
